Time,TemperatureF,DewpointF,PressureIn,WindDirection,WindDirectionDegrees,WindSpeedMPH,WindSpeedGustMPH,Humidity,HourlyPrecipIn,Conditions,Clouds,dailyrainin,SoftwareType,DateUTC
2013-02-14 00:00:00,44.2,32.5,29.20,SSE,148,0.0,0.0,63,0.00,,,0.00,LWC V2.10 B1813,2013-02-14 06:00:00,
2013-02-14 00:05:00,44.1,32.7,29.20,SSE,148,0.0,0.0,64,0.00,,,0.00,LWC V2.10 B1813,2013-02-14 06:05:00,
2013-02-14 00:10:00,44.1,33.1,29.20,SSE,154,0.0,0.0,65,0.00,,,0.00,LWC V2.10 B1813,2013-02-14 06:10:00,
2013-02-14 00:15:00,44.1,33.1,29.20,SSE,159,0.0,0.0,65,0.00,,,0.00,LWC V2.10 B1813,2013-02-14 06:15:00,
2013-02-14 00:20:00,43.9,33.3,29.20,SSE,165,0.0,0.0,66,0.00,,,0.00,LWC V2.10 B1813,2013-02-14 06:20:00,
2013-02-14 00:25:00,43.7,33.1,29.20,South,172,0.0,0.0,66,0.00,,,0.00,LWC V2.10 B1813,2013-02-14 06:25:00,
2013-02-14 00:30:00,43.3,32.8,29.20,South,172,0.0,0.0,66,0.00,,,0.00,LWC V2.10 B1813,2013-02-14 06:30:00,
2013-02-14 00:35:00,43.3,32.8,29.20,South,172,0.0,0.0,66,0.00,,,0.00,LWC V2.10 B1813,2013-02-14 06:35:00,
2013-02-14 00:40:00,43.5,32.9,29.20,South,173,0.0,0.0,66,0.00,,,0.00,LWC V2.10 B1813,2013-02-14 06:40:00,
2013-02-14 00:45:00,43.7,32.7,29.20,South,173,0.0,0.0,65,0.00,,,0.00,LWC V2.10 B1813,2013-02-14 06:45:00,
2013-02-14 00:50:00,43.9,32.9,29.20,South,173,0.0,0.0,65,0.00,,,0.00,LWC V2.10 B1813,2013-02-14 06:50:00,
2013-02-14 00:55:00,43.7,32.3,29.20,South,173,0.0,0.0,64,0.00,,,0.00,LWC V2.10 B1813,2013-02-14 06:55:00,
2013-02-14 01:00:00,43.9,32.5,29.20,South,173,0.0,0.0,64,0.00,,,0.00,LWC V2.10 B1813,2013-02-14 07:00:00,
2013-02-14 01:05:00,43.9,32.5,29.20,South,173,0.0,0.0,64,0.00,,,0.00,LWC V2.10 B1813,2013-02-14 07:05:00,
2013-02-14 01:10:00,43.9,32.5,29.20,South,173,0.0,0.0,64,0.00,,,0.00,LWC V2.10 B1813,2013-02-14 07:10:00,
2013-02-14 01:15:00,43.9,32.5,29.20,South,173,0.0,0.0,64,0.00,,,0.00,LWC V2.10 B1813,2013-02-14 07:15:00,
2013-02-14 01:20:00,43.7,32.3,29.20,South,173,0.0,0.0,64,0.00,,,0.00,LWC V2.10 B1813,2013-02-14 07:20:00,
2013-02-14 01:25:00,43.7,32.3,29.20,South,173,0.0,0.0,64,0.00,,,0.00,LWC V2.10 B1813,2013-02-14 07:25:00,
2013-02-14 01:30:00,43.5,32.5,29.20,South,173,0.0,0.0,65,0.00,,,0.00,LWC V2.10 B1813,2013-02-14 07:30:00,
2013-02-14 01:35:00,43.3,32.4,29.20,SSE,167,0.0,0.0,65,0.00,,,0.00,LWC V2.10 B1813,2013-02-14 07:35:00,
2013-02-14 01:40:00,43.3,32.8,29.20,SSE,166,0.0,0.0,66,0.00,,,0.00,LWC V2.10 B1813,2013-02-14 07:40:00,
2013-02-14 01:45:00,43.3,32.8,29.20,SSE,165,0.0,0.0,66,0.00,,,0.00,LWC V2.10 B1813,2013-02-14 07:45:00,
2013-02-14 01:50:00,43.2,32.6,29.20,SSE,165,0.0,0.0,66,0.00,,,0.00,LWC V2.10 B1813,2013-02-14 07:50:00,
2013-02-14 01:55:00,43.3,32.8,29.20,SSE,165,0.0,0.0,66,0.00,,,0.00,LWC V2.10 B1813,2013-02-14 07:55:00,
2013-02-14 02:00:00,43.5,32.9,29.20,SE,145,0.0,0.0,66,0.00,,,0.00,LWC V2.10 B1813,2013-02-14 08:00:00,
2013-02-14 02:05:00,43.5,32.9,29.20,SE,131,0.0,0.0,66,0.00,,,0.00,LWC V2.10 B1813,2013-02-14 08:05:00,
2013-02-14 02:10:00,43.2,32.6,29.20,SE,143,0.0,0.0,66,0.00,,,0.00,LWC V2.10 B1813,2013-02-14 08:10:00,
2013-02-14 02:15:00,43.3,32.8,29.18,South,170,0.0,2.2,66,0.00,,,0.00,LWC V2.10 B1813,2013-02-14 08:15:00,
2013-02-14 02:20:00,43.2,32.6,29.18,South,170,0.0,0.0,66,0.00,,,0.00,LWC V2.10 B1813,2013-02-14 08:20:00,
2013-02-14 02:25:00,43.0,32.4,29.18,South,170,0.0,0.0,66,0.00,,,0.00,LWC V2.10 B1813,2013-02-14 08:25:00,
2013-02-14 02:30:00,43.0,32.8,29.20,South,170,0.0,0.0,67,0.00,,,0.00,LWC V2.10 B1813,2013-02-14 08:30:00,
2013-02-14 02:35:00,42.4,32.3,29.20,South,170,0.0,0.0,67,0.00,,,0.00,LWC V2.10 B1813,2013-02-14 08:35:00,
2013-02-14 02:40:00,42.3,32.1,29.20,South,170,0.0,0.0,67,0.00,,,0.00,LWC V2.10 B1813,2013-02-14 08:40:00,
2013-02-14 02:45:00,42.4,32.6,29.20,South,170,0.0,0.0,68,0.00,,,0.00,LWC V2.10 B1813,2013-02-14 08:45:00,
2013-02-14 02:50:00,42.3,32.5,29.20,South,170,0.0,0.0,68,0.00,,,0.00,LWC V2.10 B1813,2013-02-14 08:50:00,
2013-02-14 02:55:00,42.1,32.3,29.20,South,170,0.0,0.0,68,0.00,,,0.00,LWC V2.10 B1813,2013-02-14 08:55:00,
2013-02-14 03:00:00,42.1,32.7,29.20,South,170,0.0,0.0,69,0.00,,,0.00,LWC V2.10 B1813,2013-02-14 09:00:00,
2013-02-14 03:05:00,42.1,32.7,29.20,South,170,0.0,0.0,69,0.00,,,0.00,LWC V2.10 B1813,2013-02-14 09:05:00,
2013-02-14 03:10:00,41.7,32.3,29.20,South,170,0.0,0.0,69,0.00,,,0.00,LWC V2.10 B1813,2013-02-14 09:10:00,
2013-02-14 03:15:00,41.7,32.3,29.20,South,170,0.0,0.0,69,0.00,,,0.00,LWC V2.10 B1813,2013-02-14 09:15:00,
2013-02-14 03:20:00,41.4,32.3,29.20,South,170,0.0,0.0,70,0.00,,,0.00,LWC V2.10 B1813,2013-02-14 09:20:00,
2013-02-14 03:25:00,41.2,32.2,29.20,South,170,0.0,0.0,70,0.00,,,0.00,LWC V2.10 B1813,2013-02-14 09:25:00,
2013-02-14 03:30:00,41.2,32.2,29.20,South,170,0.0,0.0,70,0.00,,,0.00,LWC V2.10 B1813,2013-02-14 09:30:00,
2013-02-14 03:35:00,41.0,32.3,29.20,East,83,0.0,0.0,71,0.00,,,0.00,LWC V2.10 B1813,2013-02-14 09:35:00,
2013-02-14 03:40:00,41.0,32.3,29.20,East,83,0.0,0.0,71,0.00,,,0.00,LWC V2.10 B1813,2013-02-14 09:40:00,
2013-02-14 03:45:00,41.0,32.3,29.20,East,83,0.0,0.0,71,0.00,,,0.00,LWC V2.10 B1813,2013-02-14 09:45:00,
2013-02-14 03:50:00,41.2,32.8,29.20,East,83,0.0,0.0,72,0.00,,,0.00,LWC V2.10 B1813,2013-02-14 09:50:00,
2013-02-14 03:55:00,41.4,33.0,29.20,East,83,0.0,0.0,72,0.00,,,0.00,LWC V2.10 B1813,2013-02-14 09:55:00,
2013-02-14 04:00:00,41.5,33.2,29.20,East,83,0.0,0.0,72,0.00,,,0.00,LWC V2.10 B1813,2013-02-14 10:00:00,
2013-02-14 04:05:00,42.1,33.4,29.20,East,83,0.0,0.0,71,0.00,,,0.00,LWC V2.10 B1813,2013-02-14 10:05:00,
2013-02-14 04:10:00,42.3,33.5,29.20,East,83,0.0,0.0,71,0.00,,,0.00,LWC V2.10 B1813,2013-02-14 10:10:00,
2013-02-14 04:15:00,42.6,33.9,29.20,East,83,0.0,0.0,71,0.00,,,0.00,LWC V2.10 B1813,2013-02-14 10:15:00,
2013-02-14 04:20:00,42.8,33.7,29.20,East,83,0.0,0.0,70,0.00,,,0.00,LWC V2.10 B1813,2013-02-14 10:20:00,
2013-02-14 04:25:00,42.4,33.4,29.20,East,83,0.0,0.0,70,0.00,,,0.00,LWC V2.10 B1813,2013-02-14 10:25:00,
2013-02-14 04:30:00,42.1,33.0,29.20,East,83,0.0,0.0,70,0.00,,,0.00,LWC V2.10 B1813,2013-02-14 10:30:00,
2013-02-14 04:35:00,41.7,32.3,29.20,East,83,0.0,0.0,69,0.00,,,0.00,LWC V2.10 B1813,2013-02-14 10:35:00,
2013-02-14 04:40:00,41.5,32.1,29.20,East,83,0.0,0.0,69,0.00,,,0.00,LWC V2.10 B1813,2013-02-14 10:40:00,
2013-02-14 04:45:00,41.4,32.3,29.20,East,83,0.0,0.0,70,0.00,,,0.00,LWC V2.10 B1813,2013-02-14 10:45:00,
2013-02-14 04:50:00,41.0,32.0,29.20,East,83,0.0,0.0,70,0.00,,,0.00,LWC V2.10 B1813,2013-02-14 10:50:00,
2013-02-14 04:55:00,41.0,32.3,29.20,East,83,0.0,0.0,71,0.00,,,0.00,LWC V2.10 B1813,2013-02-14 10:55:00,
2013-02-14 05:00:00,41.0,32.3,29.20,East,83,0.0,0.0,71,0.00,,,0.00,LWC V2.10 B1813,2013-02-14 11:00:00,
2013-02-14 05:05:00,41.0,32.3,29.20,East,83,0.0,0.0,71,0.00,,,0.00,LWC V2.10 B1813,2013-02-14 11:05:00,
2013-02-14 05:10:00,40.3,32.0,29.20,East,83,0.0,0.0,72,0.00,,,0.00,LWC V2.10 B1813,2013-02-14 11:10:00,
2013-02-14 05:15:00,40.1,31.8,29.20,East,83,0.0,0.0,72,0.00,,,0.00,LWC V2.10 B1813,2013-02-14 11:15:00,
2013-02-14 05:20:00,39.9,31.6,29.20,East,83,0.0,0.0,72,0.00,,,0.00,LWC V2.10 B1813,2013-02-14 11:20:00,
2013-02-14 05:25:00,39.7,31.5,29.20,East,83,0.0,0.0,72,0.00,,,0.00,LWC V2.10 B1813,2013-02-14 11:25:00,
2013-02-14 05:30:00,39.7,31.5,29.20,East,83,0.0,0.0,72,0.00,,,0.00,LWC V2.10 B1813,2013-02-14 11:30:00,
2013-02-14 05:35:00,39.7,31.8,29.20,East,83,0.0,0.0,73,0.00,,,0.00,LWC V2.10 B1813,2013-02-14 11:35:00,
2013-02-14 05:40:00,39.6,31.6,29.20,East,83,0.0,0.0,73,0.00,,,0.00,LWC V2.10 B1813,2013-02-14 11:40:00,
2013-02-14 05:45:00,39.4,31.5,29.20,East,83,0.0,0.0,73,0.00,,,0.00,LWC V2.10 B1813,2013-02-14 11:45:00,
2013-02-14 05:50:00,39.7,32.1,29.20,East,83,0.0,0.0,74,0.00,,,0.00,LWC V2.10 B1813,2013-02-14 11:50:00,
2013-02-14 05:55:00,39.9,32.3,29.20,East,83,0.0,0.0,74,0.00,,,0.00,LWC V2.10 B1813,2013-02-14 11:55:00,
2013-02-14 06:00:00,40.5,32.8,29.20,East,83,0.0,0.0,74,0.00,,,0.00,LWC V2.10 B1813,2013-02-14 12:00:00,
2013-02-14 06:05:00,40.6,32.7,29.20,East,83,0.0,0.0,73,0.00,,,0.00,LWC V2.10 B1813,2013-02-14 12:05:00,
2013-02-14 06:10:00,40.5,32.5,29.20,East,83,0.0,0.0,73,0.00,,,0.00,LWC V2.10 B1813,2013-02-14 12:10:00,
2013-02-14 06:15:00,40.5,32.2,29.20,East,83,0.0,0.0,72,0.00,,,0.00,LWC V2.10 B1813,2013-02-14 12:15:00,
2013-02-14 06:18:00,40.1,31.8,29.20,East,83,0.0,0.0,72,0.00,,,0.00,LWC V2.10 B1813,2013-02-14 12:18:00,
2013-02-14 06:23:00,39.9,31.6,29.20,East,83,0.0,0.0,72,0.00,,,0.00,LWC V2.10 B1813,2013-02-14 12:23:00,
2013-02-14 06:28:00,39.7,31.5,29.20,East,83,0.0,0.0,72,0.00,,,0.00,LWC V2.10 B1813,2013-02-14 12:28:00,
2013-02-14 06:33:00,39.7,31.5,29.20,ENE,71,0.0,0.0,72,0.00,,,0.00,LWC V2.10 B1813,2013-02-14 12:33:00,
2013-02-14 06:38:00,39.6,31.3,29.20,ENE,64,0.0,0.0,72,0.00,,,0.00,LWC V2.10 B1813,2013-02-14 12:38:00,
2013-02-14 06:44:00,39.2,30.9,29.20,North,357,0.0,0.0,72,0.00,,,0.00,LWC V2.10 B1813,2013-02-14 12:44:00,
2013-02-14 06:49:00,39.4,31.5,29.20,WNW,291,2.7,3.1,73,0.00,,,0.00,LWC V2.10 B1813,2013-02-14 12:49:00,
2013-02-14 06:54:00,40.1,32.2,29.20,West,270,3.1,3.6,73,0.00,,,0.00,LWC V2.10 B1813,2013-02-14 12:54:00,
2013-02-14 06:59:00,40.1,32.2,29.20,West,273,0.0,3.1,73,0.00,,,0.00,LWC V2.10 B1813,2013-02-14 12:59:00,
2013-02-14 07:04:00,40.3,32.3,29.20,SW,236,0.0,2.7,73,0.00,,,0.00,LWC V2.10 B1813,2013-02-14 13:04:00,
2013-02-14 07:09:00,40.1,31.8,29.20,SW,226,3.6,4.0,72,0.00,,,0.00,LWC V2.10 B1813,2013-02-14 13:09:00,
2013-02-14 07:14:00,40.3,32.0,29.20,SW,227,2.2,2.7,72,0.00,,,0.00,LWC V2.10 B1813,2013-02-14 13:14:00,
2013-02-14 07:19:00,39.9,31.3,29.20,SW,233,2.2,2.2,71,0.00,,,0.00,LWC V2.10 B1813,2013-02-14 13:19:00,
2013-02-14 07:24:00,40.1,31.5,29.20,WSW,251,2.7,2.7,71,0.00,,,0.00,LWC V2.10 B1813,2013-02-14 13:24:00,
2013-02-14 07:29:00,39.7,31.1,29.20,WSW,252,0.0,0.0,71,0.00,,,0.00,LWC V2.10 B1813,2013-02-14 13:29:00,
2013-02-14 07:34:00,40.1,31.5,29.20,West,262,0.0,0.0,71,0.00,,,0.00,LWC V2.10 B1813,2013-02-14 13:34:00,
2013-02-14 07:39:00,40.5,31.8,29.20,West,270,0.0,0.0,71,0.00,,,0.00,LWC V2.10 B1813,2013-02-14 13:39:00,
2013-02-14 07:44:00,40.6,31.6,29.24,WNW,285,0.0,0.0,70,0.00,,,0.00,LWC V2.10 B1813,2013-02-14 13:44:00,
2013-02-14 07:49:00,41.0,31.6,29.24,West,281,2.7,3.1,69,0.00,,,0.00,LWC V2.10 B1813,2013-02-14 13:49:00,
2013-02-14 07:54:00,41.2,31.8,29.24,West,279,0.0,2.2,69,0.00,,,0.00,LWC V2.10 B1813,2013-02-14 13:54:00,
2013-02-14 07:59:00,41.5,32.1,29.24,West,279,0.0,0.0,69,0.00,,,0.00,LWC V2.10 B1813,2013-02-14 13:59:00,
2013-02-14 08:04:00,41.7,31.9,29.24,West,280,0.0,0.0,68,0.00,,,0.00,LWC V2.10 B1813,2013-02-14 14:04:00,
2013-02-14 08:09:00,42.1,32.3,29.24,West,280,0.0,0.0,68,0.00,,,0.00,LWC V2.10 B1813,2013-02-14 14:09:00,
2013-02-14 08:14:00,42.4,32.3,29.24,West,280,0.0,0.0,67,0.00,,,0.00,LWC V2.10 B1813,2013-02-14 14:14:00,
2013-02-14 08:19:00,43.0,32.4,29.24,West,280,0.0,0.0,66,0.00,,,0.00,LWC V2.10 B1813,2013-02-14 14:19:00,
2013-02-14 08:24:00,43.3,32.4,29.24,West,280,0.0,0.0,65,0.00,,,0.00,LWC V2.10 B1813,2013-02-14 14:24:00,
2013-02-14 08:29:00,43.9,32.9,29.24,West,280,0.0,0.0,65,0.00,,,0.00,LWC V2.10 B1813,2013-02-14 14:29:00,
2013-02-14 08:34:00,44.6,33.2,29.24,West,280,0.0,0.0,64,0.00,,,0.00,LWC V2.10 B1813,2013-02-14 14:34:00,
2013-02-14 08:39:00,45.0,33.1,29.24,West,280,0.0,0.0,63,0.00,,,0.00,LWC V2.10 B1813,2013-02-14 14:39:00,
2013-02-14 08:44:00,44.6,33.6,29.24,West,280,0.0,0.0,65,0.00,,,0.00,LWC V2.10 B1813,2013-02-14 14:44:00,
2013-02-14 08:45:00,44.6,33.6,29.24,West,280,0.0,0.0,65,0.00,,,0.00,LWC V2.10 B1813,2013-02-14 14:45:00,
2013-02-14 08:50:00,45.5,34.8,29.24,West,268,0.0,0.0,66,0.00,,,0.00,LWC V2.10 B1813,2013-02-14 14:50:00,
2013-02-14 08:55:00,46.0,34.9,29.24,SW,222,0.0,0.0,65,0.00,,,0.00,LWC V2.10 B1813,2013-02-14 14:55:00,
2013-02-14 09:00:00,46.2,34.7,29.20,SSW,202,0.0,0.0,64,0.00,,,0.00,LWC V2.10 B1813,2013-02-14 15:00:00,
2013-02-14 09:05:00,46.4,34.1,29.20,SW,230,0.0,3.1,62,0.00,,,0.00,LWC V2.10 B1813,2013-02-14 15:05:00,
2013-02-14 09:10:00,46.6,33.9,29.20,SSW,213,4.5,4.5,61,0.00,,,0.00,LWC V2.10 B1813,2013-02-14 15:10:00,
2013-02-14 09:15:00,46.4,33.7,29.24,SSW,199,2.2,3.6,61,0.00,,,0.00,LWC V2.10 B1813,2013-02-14 15:15:00,
2013-02-14 09:20:00,46.8,34.0,29.24,SSW,200,2.7,4.0,61,0.00,,,0.00,LWC V2.10 B1813,2013-02-14 15:20:00,
2013-02-14 09:25:00,47.5,34.7,29.24,SW,233,4.5,4.5,61,0.00,,,0.00,LWC V2.10 B1813,2013-02-14 15:25:00,
2013-02-14 09:30:00,47.8,34.6,29.24,WSW,244,3.1,5.4,60,0.00,,,0.00,LWC V2.10 B1813,2013-02-14 15:30:00,
2013-02-14 09:35:00,48.2,34.6,29.24,WSW,251,0.0,4.0,59,0.00,,,0.00,LWC V2.10 B1813,2013-02-14 15:35:00,
2013-02-14 09:40:00,48.6,35.3,29.24,WSW,247,0.0,3.1,60,0.00,,,0.00,LWC V2.10 B1813,2013-02-14 15:40:00,
2013-02-14 09:45:00,49.5,36.2,29.24,WSW,241,2.2,2.7,60,0.00,,,0.00,LWC V2.10 B1813,2013-02-14 15:45:00,
2013-02-14 09:50:00,49.6,35.9,29.24,West,279,2.2,2.7,59,0.00,,,0.00,LWC V2.10 B1813,2013-02-14 15:50:00,
2013-02-14 09:55:00,50.0,35.8,29.24,WNW,284,0.0,3.1,58,0.00,,,0.00,LWC V2.10 B1813,2013-02-14 15:55:00,
2013-02-14 10:00:00,50.5,36.3,29.24,West,273,2.2,3.1,58,0.00,,,0.00,LWC V2.10 B1813,2013-02-14 16:00:00,
2013-02-14 10:05:00,51.3,37.0,29.24,West,273,2.2,2.7,58,0.00,,,0.00,LWC V2.10 B1813,2013-02-14 16:05:00,
2013-02-14 10:10:00,51.6,36.9,29.24,West,259,2.7,3.1,57,0.00,,,0.00,LWC V2.10 B1813,2013-02-14 16:10:00,
2013-02-14 10:15:00,52.5,37.3,29.24,West,267,2.2,2.7,56,0.00,,,0.00,LWC V2.10 B1813,2013-02-14 16:15:00,
2013-02-14 10:20:00,53.2,37.5,29.24,WSW,237,0.0,4.0,55,0.00,,,0.00,LWC V2.10 B1813,2013-02-14 16:20:00,
2013-02-14 10:25:00,54.0,38.2,29.24,SW,224,3.6,3.6,55,0.00,,,0.00,LWC V2.10 B1813,2013-02-14 16:25:00,
2013-02-14 10:30:00,54.3,38.0,29.24,SSW,194,2.7,4.9,54,0.00,,,0.00,LWC V2.10 B1813,2013-02-14 16:30:00,
2013-02-14 10:35:00,55.6,38.7,29.24,SW,228,0.0,0.0,53,0.00,,,0.00,LWC V2.10 B1813,2013-02-14 16:35:00,
2013-02-14 10:40:00,56.1,38.7,29.24,SSW,208,3.6,3.6,52,0.00,,,0.00,LWC V2.10 B1813,2013-02-14 16:40:00,
2013-02-14 10:45:00,56.3,38.9,29.24,SW,224,2.7,3.1,52,0.00,,,0.00,LWC V2.10 B1813,2013-02-14 16:45:00,
2013-02-14 10:50:00,56.8,38.9,29.24,West,264,3.1,3.1,51,0.00,,,0.00,LWC V2.10 B1813,2013-02-14 16:50:00,
2013-02-14 10:55:00,57.2,38.7,29.24,SSE,153,3.1,5.4,50,0.00,,,0.00,LWC V2.10 B1813,2013-02-14 16:55:00,
2013-02-14 11:00:00,57.6,39.1,29.24,WSW,237,0.0,3.6,50,0.00,,,0.00,LWC V2.10 B1813,2013-02-14 17:00:00,
2013-02-14 11:05:00,57.9,38.9,29.24,West,276,4.0,4.5,49,0.00,,,0.00,LWC V2.10 B1813,2013-02-14 17:05:00,
2013-02-14 11:10:00,58.6,39.5,29.24,West,267,4.9,5.4,49,0.00,,,0.00,LWC V2.10 B1813,2013-02-14 17:10:00,
2013-02-14 11:15:00,58.8,39.7,29.20,West,278,2.7,5.4,49,0.00,,,0.00,LWC V2.10 B1813,2013-02-14 17:15:00,
2013-02-14 11:20:00,59.4,39.7,29.20,WNW,297,3.6,5.4,48,0.00,,,0.00,LWC V2.10 B1813,2013-02-14 17:20:00,
2013-02-14 11:25:00,59.7,40.0,29.20,WNW,282,3.6,4.0,48,0.00,,,0.00,LWC V2.10 B1813,2013-02-14 17:25:00,
2013-02-14 11:30:00,60.1,39.8,29.20,SW,222,3.6,5.4,47,0.00,,,0.00,LWC V2.10 B1813,2013-02-14 17:30:00,
2013-02-14 11:35:00,61.0,40.1,29.20,WNW,286,4.9,4.9,46,0.00,,,0.00,LWC V2.10 B1813,2013-02-14 17:35:00,
2013-02-14 11:40:00,61.2,40.2,29.20,WNW,285,3.1,4.0,46,0.00,,,0.00,LWC V2.10 B1813,2013-02-14 17:40:00,
2013-02-14 11:45:00,62.1,41.0,29.20,West,265,2.2,2.7,46,0.00,,,0.00,LWC V2.10 B1813,2013-02-14 17:45:00,
2013-02-14 11:50:00,62.8,41.1,29.20,SW,231,0.0,0.0,45,0.00,,,0.00,LWC V2.10 B1813,2013-02-14 17:50:00,
2013-02-14 11:55:00,63.3,41.6,29.20,NW,305,3.6,5.4,45,0.00,,,0.00,LWC V2.10 B1813,2013-02-14 17:55:00,
2013-02-14 12:00:00,64.2,41.8,29.20,WSW,244,0.0,0.0,44,0.00,,,0.00,LWC V2.10 B1813,2013-02-14 18:00:00,
2013-02-14 12:05:00,64.6,42.2,29.20,SW,233,2.7,3.6,44,0.00,,,0.00,LWC V2.10 B1813,2013-02-14 18:05:00,
2013-02-14 12:10:00,64.2,41.2,29.20,WSW,249,3.1,5.8,43,0.00,,,0.00,LWC V2.10 B1813,2013-02-14 18:10:00,
2013-02-14 12:15:00,64.4,40.8,29.20,SSE,152,0.0,5.4,42,0.00,,,0.00,LWC V2.10 B1813,2013-02-14 18:15:00,
2013-02-14 12:20:00,64.9,41.3,29.20,WSW,237,5.4,5.8,42,0.00,,,0.00,LWC V2.10 B1813,2013-02-14 18:20:00,
2013-02-14 12:25:00,65.8,41.5,29.20,SW,221,2.7,5.8,41,0.00,,,0.00,LWC V2.10 B1813,2013-02-14 18:25:00,
2013-02-14 12:30:00,66.0,41.6,29.18,SSE,161,3.6,5.4,41,0.00,,,0.00,LWC V2.10 B1813,2013-02-14 18:30:00,
2013-02-14 12:35:00,66.6,41.5,29.18,WNW,293,4.9,4.9,40,0.00,,,0.00,LWC V2.10 B1813,2013-02-14 18:35:00,
2013-02-14 12:40:00,66.2,40.5,29.18,WSW,253,3.6,5.8,39,0.00,,,0.00,LWC V2.10 B1813,2013-02-14 18:40:00,
2013-02-14 12:45:00,66.6,40.2,29.18,SW,217,5.8,6.3,38,0.00,,,0.00,LWC V2.10 B1813,2013-02-14 18:45:00,
2013-02-14 12:50:00,66.9,39.8,29.18,SW,214,3.1,4.9,37,0.00,,,0.00,LWC V2.10 B1813,2013-02-14 18:50:00,
2013-02-14 12:55:00,67.5,39.6,29.18,WSW,250,5.8,5.8,36,0.00,,,0.00,LWC V2.10 B1813,2013-02-14 18:55:00,
2013-02-14 13:00:00,68.0,39.3,29.18,SW,225,6.7,8.1,35,0.00,,,0.00,LWC V2.10 B1813,2013-02-14 19:00:00,
2013-02-14 13:05:00,68.2,38.7,29.18,SSW,212,3.6,8.1,34,0.00,,,0.00,LWC V2.10 B1813,2013-02-14 19:05:00,
2013-02-14 13:10:00,68.0,38.6,29.18,WNW,298,4.9,8.1,34,0.00,,,0.00,LWC V2.10 B1813,2013-02-14 19:10:00,
2013-02-14 13:15:00,68.5,39.1,29.18,South,174,3.1,5.4,34,0.00,,,0.00,LWC V2.10 B1813,2013-02-14 19:15:00,
2013-02-14 13:20:00,68.9,38.6,29.18,SSW,203,5.8,7.6,33,0.00,,,0.00,LWC V2.10 B1813,2013-02-14 19:20:00,
2013-02-14 13:25:00,68.5,38.3,29.18,SW,227,5.8,7.6,33,0.00,,,0.00,LWC V2.10 B1813,2013-02-14 19:25:00,
2013-02-14 13:30:00,68.9,38.6,29.15,SW,228,7.6,7.6,33,0.00,,,0.00,LWC V2.10 B1813,2013-02-14 19:30:00,
2013-02-14 13:35:00,68.5,38.3,29.15,South,179,3.6,6.3,33,0.00,,,0.00,LWC V2.10 B1813,2013-02-14 19:35:00,
2013-02-14 13:40:00,69.6,38.4,29.15,SW,226,5.8,8.1,32,0.00,,,0.00,LWC V2.10 B1813,2013-02-14 19:40:00,
2013-02-14 13:45:00,68.7,37.7,29.15,SSE,157,2.7,8.7,32,0.00,,,0.00,LWC V2.10 B1813,2013-02-14 19:45:00,
2013-02-14 13:50:00,69.6,38.4,29.15,WSW,250,5.8,5.8,32,0.00,,,0.00,LWC V2.10 B1813,2013-02-14 19:50:00,
2013-02-14 13:55:00,69.3,38.1,29.15,West,275,3.1,6.3,32,0.00,,,0.00,LWC V2.10 B1813,2013-02-14 19:55:00,
2013-02-14 14:00:00,69.8,37.8,29.15,SSE,166,8.1,8.7,31,0.00,,,0.00,LWC V2.10 B1813,2013-02-14 20:00:00,
2013-02-14 14:05:00,69.6,36.8,29.15,SSE,153,8.1,8.7,30,0.00,,,0.00,LWC V2.10 B1813,2013-02-14 20:05:00,
2013-02-14 14:10:00,69.4,36.6,29.15,SSE,153,3.6,8.3,30,0.00,,,0.00,LWC V2.10 B1813,2013-02-14 20:10:00,
2013-02-14 14:15:00,69.4,36.6,29.12,SW,225,7.6,7.6,30,0.00,,,0.00,LWC V2.10 B1813,2013-02-14 20:15:00,
2013-02-14 14:20:00,69.8,37.8,29.12,SW,229,3.6,8.1,31,0.00,,,0.00,LWC V2.10 B1813,2013-02-14 20:20:00,
2013-02-14 14:25:00,70.3,37.4,29.12,SW,214,10.5,10.5,30,0.00,,,0.00,LWC V2.10 B1813,2013-02-14 20:25:00,
2013-02-14 14:30:00,69.8,34.3,29.12,SSW,212,8.3,8.3,27,0.00,,,0.00,LWC V2.10 B1813,2013-02-14 20:30:00,
2013-02-14 14:35:00,70.3,34.8,29.12,SSE,167,3.6,7.2,27,0.00,,,0.00,LWC V2.10 B1813,2013-02-14 20:35:00,
2013-02-14 14:40:00,70.2,33.7,29.12,SW,221,6.3,9.6,26,0.00,,,0.00,LWC V2.10 B1813,2013-02-14 20:40:00,
2013-02-14 14:45:00,70.3,33.8,29.12,SSW,212,8.1,8.3,26,0.00,,,0.00,LWC V2.10 B1813,2013-02-14 20:45:00,
2013-02-14 14:50:00,70.0,33.5,29.12,SSE,163,5.8,8.7,26,0.00,,,0.00,LWC V2.10 B1813,2013-02-14 20:50:00,
2013-02-14 14:55:00,69.4,32.1,29.12,SSW,205,8.7,12.3,25,0.00,,,0.00,LWC V2.10 B1813,2013-02-14 20:55:00,
2013-02-14 15:00:00,70.2,34.6,29.12,SSW,192,5.4,5.8,27,0.00,,,0.00,LWC V2.10 B1813,2013-02-14 21:00:00,
2013-02-14 15:05:00,69.8,33.4,29.12,SE,127,8.1,8.1,26,0.00,,,0.00,LWC V2.10 B1813,2013-02-14 21:05:00,
2013-02-14 15:10:00,70.3,32.8,29.12,SSW,197,5.8,6.7,25,0.00,,,0.00,LWC V2.10 B1813,2013-02-14 21:10:00,
2013-02-14 15:15:00,70.0,33.5,29.12,SSE,150,3.6,5.4,26,0.00,,,0.00,LWC V2.10 B1813,2013-02-14 21:15:00,
2013-02-14 15:20:00,69.6,33.2,29.12,SSW,208,3.6,8.1,26,0.00,,,0.00,LWC V2.10 B1813,2013-02-14 21:20:00,
2013-02-14 15:25:00,70.2,32.7,29.12,SSW,198,3.6,8.1,25,0.00,,,0.00,LWC V2.10 B1813,2013-02-14 21:25:00,
2013-02-14 15:30:00,70.3,32.8,29.12,South,182,4.9,5.4,25,0.00,,,0.00,LWC V2.10 B1813,2013-02-14 21:30:00,
2013-02-14 15:35:00,70.7,33.1,29.12,SSE,168,5.4,6.3,25,0.00,,,0.00,LWC V2.10 B1813,2013-02-14 21:35:00,
2013-02-14 15:40:00,70.2,31.7,29.12,SSE,162,4.0,7.2,24,0.00,,,0.00,LWC V2.10 B1813,2013-02-14 21:40:00,
2013-02-14 15:45:00,70.7,33.1,29.12,SSE,165,6.3,7.6,25,0.00,,,0.00,LWC V2.10 B1813,2013-02-14 21:45:00,
2013-02-14 15:50:00,70.5,32.0,29.12,SSW,203,4.9,10.5,24,0.00,,,0.00,LWC V2.10 B1813,2013-02-14 21:50:00,
2013-02-14 15:55:00,70.7,34.1,29.12,SE,139,5.8,5.8,26,0.00,,,0.00,LWC V2.10 B1813,2013-02-14 21:55:00,
2013-02-14 16:00:00,70.5,33.0,29.12,ENE,73,4.0,6.3,25,0.00,,,0.00,LWC V2.10 B1813,2013-02-14 22:00:00,
2013-02-14 16:05:00,70.5,33.0,29.12,SSW,212,7.6,7.6,25,0.00,,,0.00,LWC V2.10 B1813,2013-02-14 22:05:00,
2013-02-14 16:10:00,70.2,31.7,29.12,South,175,3.1,6.3,24,0.00,,,0.00,LWC V2.10 B1813,2013-02-14 22:10:00,
2013-02-14 16:15:00,70.3,32.8,29.12,SSE,157,3.6,6.3,25,0.00,,,0.00,LWC V2.10 B1813,2013-02-14 22:15:00,
2013-02-14 16:20:00,70.5,32.0,29.12,South,175,5.8,5.8,24,0.00,,,0.00,LWC V2.10 B1813,2013-02-14 22:20:00,
2013-02-14 16:25:00,70.5,32.0,29.12,SE,124,3.1,5.8,24,0.00,,,0.00,LWC V2.10 B1813,2013-02-14 22:25:00,
2013-02-14 16:30:00,70.2,31.7,29.12,SSE,161,4.0,10.5,24,0.00,,,0.00,LWC V2.10 B1813,2013-02-14 22:30:00,
2013-02-14 16:35:00,70.0,30.5,29.12,SE,142,7.6,8.3,23,0.00,,,0.00,LWC V2.10 B1813,2013-02-14 22:35:00,
2013-02-14 16:40:00,70.3,31.8,29.12,SE,138,5.4,8.3,24,0.00,,,0.00,LWC V2.10 B1813,2013-02-14 22:40:00,
2013-02-14 16:45:00,70.2,31.7,29.12,SSE,159,5.4,5.4,24,0.00,,,0.00,LWC V2.10 B1813,2013-02-14 22:45:00,
2013-02-14 16:50:00,70.0,30.5,29.12,SW,219,5.4,10.5,23,0.00,,,0.00,LWC V2.10 B1813,2013-02-14 22:50:00,
2013-02-14 16:55:00,70.0,30.5,29.12,SSE,147,4.0,7.6,23,0.00,,,0.00,LWC V2.10 B1813,2013-02-14 22:55:00,
2013-02-14 17:00:00,70.5,32.0,29.09,South,169,6.3,6.3,24,0.00,,,0.00,LWC V2.10 B1813,2013-02-14 23:00:00,
2013-02-14 17:05:00,69.4,30.0,29.09,South,189,6.7,9.6,23,0.00,,,0.00,LWC V2.10 B1813,2013-02-14 23:05:00,
2013-02-14 17:10:00,69.6,31.2,29.09,SW,218,3.1,7.6,24,0.00,,,0.00,LWC V2.10 B1813,2013-02-14 23:10:00,
2013-02-14 17:15:00,69.8,31.4,29.12,SSE,153,5.4,5.8,24,0.00,,,0.00,LWC V2.10 B1813,2013-02-14 23:15:00,
2013-02-14 17:20:00,69.3,30.9,29.12,South,177,6.3,8.1,24,0.00,,,0.00,LWC V2.10 B1813,2013-02-14 23:20:00,
2013-02-14 17:25:00,69.3,31.9,29.12,SSE,164,2.7,5.8,25,0.00,,,0.00,LWC V2.10 B1813,2013-02-14 23:25:00,
2013-02-14 17:30:00,69.1,30.8,29.12,SSW,194,4.9,4.9,24,0.00,,,0.00,LWC V2.10 B1813,2013-02-14 23:30:00,
2013-02-14 17:35:00,68.9,31.6,29.12,SSE,148,5.8,7.6,25,0.00,,,0.00,LWC V2.10 B1813,2013-02-14 23:35:00,
2013-02-14 17:40:00,68.5,30.3,29.12,SSW,193,5.4,7.6,24,0.00,,,0.00,LWC V2.10 B1813,2013-02-14 23:40:00,
2013-02-14 17:45:00,68.2,30.0,29.12,South,186,8.7,8.7,24,0.00,,,0.00,LWC V2.10 B1813,2013-02-14 23:45:00,
2013-02-14 17:50:00,67.8,30.7,29.12,SSE,162,3.1,7.6,25,0.00,,,0.00,LWC V2.10 B1813,2013-02-14 23:50:00,
2013-02-14 17:55:00,67.5,30.4,29.12,South,186,4.9,4.9,25,0.00,,,0.00,LWC V2.10 B1813,2013-02-14 23:55:00,
2013-02-14 18:00:00,67.3,30.3,29.12,SSE,166,6.3,6.3,25,0.00,,,0.00,LWC V2.10 B1813,2013-02-15 00:00:00,
2013-02-14 18:05:00,66.7,30.8,29.12,SSW,198,3.1,6.3,26,0.00,,,0.00,LWC V2.10 B1813,2013-02-15 00:05:00,
2013-02-14 18:10:00,66.2,30.3,29.12,SSW,202,4.9,8.1,26,0.00,,,0.00,LWC V2.10 B1813,2013-02-15 00:10:00,
2013-02-14 18:15:00,65.8,30.9,29.12,SSE,160,2.2,5.8,27,0.00,,,0.00,LWC V2.10 B1813,2013-02-15 00:15:00,
2013-02-14 18:20:00,64.9,31.0,29.12,SSE,154,4.0,4.9,28,0.00,,,0.00,LWC V2.10 B1813,2013-02-15 00:20:00,
2013-02-14 18:25:00,64.4,31.5,29.12,SSE,149,3.6,5.8,29,0.00,,,0.00,LWC V2.10 B1813,2013-02-15 00:25:00,
2013-02-14 18:30:00,63.9,31.8,29.12,East,100,4.0,4.9,30,0.00,,,0.00,LWC V2.10 B1813,2013-02-15 00:30:00,
2013-02-14 18:35:00,63.5,31.5,29.12,SSE,164,4.0,5.8,30,0.00,,,0.00,LWC V2.10 B1813,2013-02-15 00:35:00,
2013-02-14 18:40:00,63.1,32.0,29.12,ESE,108,4.0,6.3,31,0.00,,,0.00,LWC V2.10 B1813,2013-02-15 00:40:00,
2013-02-14 18:45:00,63.0,31.9,29.12,SE,146,5.8,6.7,31,0.00,,,0.00,LWC V2.10 B1813,2013-02-15 00:45:00,
2013-02-14 18:50:00,62.6,32.3,29.12,East,83,3.6,4.9,32,0.00,,,0.00,LWC V2.10 B1813,2013-02-15 00:50:00,
2013-02-14 18:55:00,62.2,32.0,29.12,South,169,5.4,7.2,32,0.00,,,0.00,LWC V2.10 B1813,2013-02-15 00:55:00,
2013-02-14 19:00:00,62.1,32.6,29.12,SSE,162,3.1,6.3,33,0.00,,,0.00,LWC V2.10 B1813,2013-02-15 01:00:00,
2013-02-14 19:05:00,62.1,33.4,29.12,SSE,151,6.3,6.3,34,0.00,,,0.00,LWC V2.10 B1813,2013-02-15 01:05:00,
2013-02-14 19:10:00,62.1,33.4,29.12,SE,132,5.4,8.1,34,0.00,,,0.00,LWC V2.10 B1813,2013-02-15 01:10:00,
2013-02-14 19:15:00,61.9,33.2,29.12,SE,142,7.6,7.6,34,0.00,,,0.00,LWC V2.10 B1813,2013-02-15 01:15:00,
2013-02-14 19:20:00,61.9,33.2,29.12,SSE,154,5.8,8.1,34,0.00,,,0.00,LWC V2.10 B1813,2013-02-15 01:20:00,
2013-02-14 19:25:00,61.7,33.0,29.12,South,176,5.8,5.8,34,0.00,,,0.00,LWC V2.10 B1813,2013-02-15 01:25:00,
2013-02-14 19:30:00,61.3,32.7,29.12,East,88,8.1,8.7,34,0.00,,,0.00,LWC V2.10 B1813,2013-02-15 01:30:00,
2013-02-14 19:35:00,61.3,32.7,29.12,SSE,159,6.3,8.1,34,0.00,,,0.00,LWC V2.10 B1813,2013-02-15 01:35:00,
2013-02-14 19:40:00,61.0,32.4,29.12,SE,141,3.1,5.8,34,0.00,,,0.00,LWC V2.10 B1813,2013-02-15 01:40:00,
2013-02-14 19:45:00,60.8,32.3,29.12,ESE,122,7.6,7.6,34,0.00,,,0.00,LWC V2.10 B1813,2013-02-15 01:45:00,
2013-02-14 19:50:00,60.4,32.7,29.12,SE,127,4.0,6.3,35,0.00,,,0.00,LWC V2.10 B1813,2013-02-15 01:50:00,
2013-02-14 19:55:00,60.3,32.5,29.12,SE,141,5.4,7.6,35,0.00,,,0.00,LWC V2.10 B1813,2013-02-15 01:55:00,
2013-02-14 20:00:00,60.3,32.5,29.12,SE,139,2.7,8.1,35,0.00,,,0.00,LWC V2.10 B1813,2013-02-15 02:00:00,
2013-02-14 20:05:00,60.1,32.3,29.12,SSE,161,4.9,4.9,35,0.00,,,0.00,LWC V2.10 B1813,2013-02-15 02:05:00,
2013-02-14 20:10:00,59.5,31.9,29.12,SE,137,4.0,6.3,35,0.00,,,0.00,LWC V2.10 B1813,2013-02-15 02:10:00,
2013-02-14 20:15:00,59.4,31.7,29.12,SE,127,6.3,7.2,35,0.00,,,0.00,LWC V2.10 B1813,2013-02-15 02:15:00,
2013-02-14 20:20:00,59.0,31.4,29.12,ESE,113,5.4,5.8,35,0.00,,,0.00,LWC V2.10 B1813,2013-02-15 02:20:00,
2013-02-14 20:25:00,58.8,31.9,29.12,SE,124,4.0,8.1,36,0.00,,,0.00,LWC V2.10 B1813,2013-02-15 02:25:00,
2013-02-14 20:30:00,58.8,31.9,29.12,ESE,107,6.3,7.6,36,0.00,,,0.00,LWC V2.10 B1813,2013-02-15 02:30:00,
2013-02-14 20:35:00,58.6,31.8,29.12,SSE,154,7.6,8.3,36,0.00,,,0.00,LWC V2.10 B1813,2013-02-15 02:35:00,
2013-02-14 20:40:00,58.3,31.4,29.12,SSE,165,4.9,8.1,36,0.00,,,0.00,LWC V2.10 B1813,2013-02-15 02:40:00,
2013-02-14 20:45:00,58.3,31.4,29.15,SE,135,4.9,8.7,36,0.00,,,0.00,LWC V2.10 B1813,2013-02-15 02:45:00,
2013-02-14 20:50:00,58.1,32.0,29.15,ESE,104,5.4,8.3,37,0.00,,,0.00,LWC V2.10 B1813,2013-02-15 02:50:00,
2013-02-14 20:55:00,57.9,31.8,29.15,South,169,7.6,8.1,37,0.00,,,0.00,LWC V2.10 B1813,2013-02-15 02:55:00,
2013-02-14 21:00:00,57.7,31.6,29.15,ESE,121,4.9,8.3,37,0.00,,,0.00,LWC V2.10 B1813,2013-02-15 03:00:00,
2013-02-14 21:05:00,57.6,31.5,29.15,ESE,102,3.6,8.1,37,0.00,,,0.00,LWC V2.10 B1813,2013-02-15 03:05:00,
2013-02-14 21:10:00,57.6,31.5,29.15,ENE,63,3.6,8.7,37,0.00,,,0.00,LWC V2.10 B1813,2013-02-15 03:10:00,
2013-02-14 21:15:00,57.6,31.5,29.15,SE,133,5.8,10.1,37,0.00,,,0.00,LWC V2.10 B1813,2013-02-15 03:15:00,
2013-02-14 21:20:00,57.4,32.0,29.15,SSE,166,8.1,8.7,38,0.00,,,0.00,LWC V2.10 B1813,2013-02-15 03:20:00,
2013-02-14 21:25:00,57.4,32.0,29.15,ESE,123,4.0,6.3,38,0.00,,,0.00,LWC V2.10 B1813,2013-02-15 03:25:00,
2013-02-14 21:30:00,57.6,32.1,29.15,ESE,110,5.8,6.3,38,0.00,,,0.00,LWC V2.10 B1813,2013-02-15 03:30:00,
2013-02-14 21:35:00,57.4,32.0,29.15,SE,141,5.8,6.3,38,0.00,,,0.00,LWC V2.10 B1813,2013-02-15 03:35:00,
2013-02-14 21:40:00,57.4,32.0,29.15,ESE,116,5.8,10.5,38,0.00,,,0.00,LWC V2.10 B1813,2013-02-15 03:40:00,
2013-02-14 21:45:00,57.2,31.8,29.15,SE,125,5.8,7.6,38,0.00,,,0.00,LWC V2.10 B1813,2013-02-15 03:45:00,
2013-02-14 21:50:00,57.0,32.3,29.15,SE,140,3.6,7.6,39,0.00,,,0.00,LWC V2.10 B1813,2013-02-15 03:50:00,
2013-02-14 21:55:00,56.8,32.1,29.15,ENE,73,5.4,7.6,39,0.00,,,0.00,LWC V2.10 B1813,2013-02-15 03:55:00,
2013-02-14 22:00:00,56.7,32.0,29.15,SE,134,5.4,8.1,39,0.00,,,0.00,LWC V2.10 B1813,2013-02-15 04:00:00,
2013-02-14 22:05:00,56.7,32.0,29.15,ESE,122,4.9,6.3,39,0.00,,,0.00,LWC V2.10 B1813,2013-02-15 04:05:00,
2013-02-14 22:10:00,56.3,31.7,29.15,ENE,70,3.6,5.8,39,0.00,,,0.00,LWC V2.10 B1813,2013-02-15 04:10:00,
2013-02-14 22:15:00,55.9,32.0,29.15,East,79,3.6,8.7,40,0.00,,,0.00,LWC V2.10 B1813,2013-02-15 04:15:00,
2013-02-14 22:20:00,55.6,31.6,29.15,East,94,4.0,10.1,40,0.00,,,0.00,LWC V2.10 B1813,2013-02-15 04:20:00,
2013-02-14 22:25:00,55.6,31.6,29.15,ESE,104,5.8,8.1,40,0.00,,,0.00,LWC V2.10 B1813,2013-02-15 04:25:00,
2013-02-14 22:30:00,55.9,32.0,29.15,ESE,117,3.1,11.4,40,0.00,,,0.00,LWC V2.10 B1813,2013-02-15 04:30:00,
2013-02-14 22:35:00,55.8,31.8,29.15,South,172,12.3,12.3,40,0.00,,,0.00,LWC V2.10 B1813,2013-02-15 04:35:00,
2013-02-14 22:40:00,55.4,31.5,29.15,SSE,166,8.7,8.7,40,0.00,,,0.00,LWC V2.10 B1813,2013-02-15 04:40:00,
2013-02-14 22:45:00,55.4,31.5,29.15,SSE,159,5.4,7.6,40,0.00,,,0.00,LWC V2.10 B1813,2013-02-15 04:45:00,
2013-02-14 22:50:00,55.2,31.3,29.15,East,101,8.7,8.7,40,0.00,,,0.00,LWC V2.10 B1813,2013-02-15 04:50:00,
2013-02-14 22:55:00,54.9,31.0,29.15,ESE,122,7.6,10.5,40,0.00,,,0.00,LWC V2.10 B1813,2013-02-15 04:55:00,
2013-02-14 23:00:00,54.9,31.0,29.15,SE,129,6.3,10.1,40,0.00,,,0.00,LWC V2.10 B1813,2013-02-15 05:00:00,
2013-02-14 23:05:00,54.7,30.8,29.15,SSE,150,6.3,9.6,40,0.00,,,0.00,LWC V2.10 B1813,2013-02-15 05:05:00,
2013-02-14 23:10:00,54.5,30.7,29.15,ESE,102,7.6,8.3,40,0.00,,,0.00,LWC V2.10 B1813,2013-02-15 05:10:00,
2013-02-14 23:15:00,54.3,30.5,29.18,East,93,9.6,13.2,40,0.00,,,0.00,LWC V2.10 B1813,2013-02-15 05:15:00,
2013-02-14 23:20:00,54.1,30.4,29.18,SE,133,3.6,6.3,40,0.00,,,0.00,LWC V2.10 B1813,2013-02-15 05:20:00,
2013-02-14 23:25:00,54.1,30.4,29.18,East,89,5.4,9.2,40,0.00,,,0.00,LWC V2.10 B1813,2013-02-15 05:25:00,
2013-02-14 23:30:00,53.8,30.0,29.18,ENE,74,5.8,8.7,40,0.00,,,0.00,LWC V2.10 B1813,2013-02-15 05:30:00,
2013-02-14 23:35:00,53.8,30.0,29.18,ESE,112,8.3,8.3,40,0.00,,,0.00,LWC V2.10 B1813,2013-02-15 05:35:00,
2013-02-14 23:40:00,53.6,29.9,29.18,South,173,5.4,8.7,40,0.00,,,0.00,LWC V2.10 B1813,2013-02-15 05:40:00,
2013-02-14 23:45:00,53.6,29.9,29.18,SSE,158,5.4,10.1,40,0.00,,,0.00,LWC V2.10 B1813,2013-02-15 05:45:00,
2013-02-14 23:50:00,53.4,30.3,29.18,ESE,118,5.4,8.7,41,0.00,,,0.00,LWC V2.10 B1813,2013-02-15 05:50:00,
2013-02-14 23:55:00,53.4,30.3,29.18,SSE,162,5.4,8.1,41,0.00,,,0.00,LWC V2.10 B1813,2013-02-15 05:55:00,